createdAt,value
2022-12-25T00:12:50.129Z,4.93
2022-12-25T00:32:50.197Z,4.81
2022-12-25T00:52:50.055Z,4.93
2022-12-25T01:12:50.077Z,4.93
2022-12-25T01:32:50.084Z,4.93
2022-12-25T01:52:50.113Z,5.00
2022-12-25T02:12:50.136Z,4.93
2022-12-25T02:32:50.117Z,4.93
2022-12-25T02:52:50.041Z,4.93
2022-12-25T03:12:50.066Z,4.75
2022-12-25T03:32:50.067Z,4.87
2022-12-25T03:52:50.086Z,4.93
2022-12-25T04:12:50.100Z,4.93
2022-12-25T04:32:50.040Z,5.06
2022-12-25T04:52:50.072Z,5.25
2022-12-25T05:12:50.069Z,5.06
2022-12-25T05:32:50.089Z,4.87
2022-12-25T05:52:50.102Z,5.25
2022-12-25T06:12:50.015Z,5.31
2022-12-25T06:32:50.021Z,5.06
2022-12-25T06:52:50.047Z,5.12
2022-12-25T07:12:50.057Z,5.00
2022-12-25T07:32:50.069Z,5.25
2022-12-25T07:52:50.033Z,5.06
2022-12-25T08:12:50.020Z,5.37
2022-12-25T08:32:50.097Z,5.25
2022-12-25T08:52:50.161Z,5.43
2022-12-25T09:12:50.066Z,5.37
2022-12-25T09:32:50.017Z,5.18
2022-12-25T09:52:49.975Z,5.18
2022-12-25T10:12:50.007Z,5.43
2022-12-25T10:32:50.084Z,5.43
2022-12-25T10:52:50.049Z,5.43
2022-12-25T11:12:49.943Z,5.43
2022-12-25T11:32:50.027Z,5.31
2022-12-25T11:52:49.968Z,5.75
2022-12-25T12:12:49.953Z,5.56
2022-12-25T12:32:50.016Z,5.75
2022-12-25T12:52:49.933Z,5.81
2022-12-25T13:12:49.978Z,5.93
2022-12-25T13:32:49.890Z,5.87
2022-12-25T13:52:49.884Z,5.75
2022-12-25T14:12:49.836Z,5.75
2022-12-25T14:32:49.833Z,5.62
2022-12-25T14:52:49.915Z,5.56
2022-12-25T15:12:49.771Z,5.43
2022-12-25T15:32:49.805Z,5.18
2022-12-25T15:52:49.741Z,5.25
2022-12-25T16:12:49.792Z,5.18
2022-12-25T16:32:49.755Z,5.25
2022-12-25T16:52:49.781Z,5.18
2022-12-25T17:12:49.823Z,5.18
2022-12-25T17:32:49.701Z,5.12
2022-12-25T17:52:49.708Z,5.06
2022-12-25T18:12:49.729Z,5.12
2022-12-25T18:32:49.740Z,5.06
2022-12-25T18:52:49.777Z,5.06
2022-12-25T19:12:49.822Z,5.06
2022-12-25T19:32:49.684Z,5.06
2022-12-25T19:52:49.707Z,5.00
2022-12-25T20:12:49.772Z,5.06
2022-12-25T20:32:49.721Z,5.06
2022-12-25T20:52:49.798Z,5.06
2022-12-25T21:12:49.777Z,5.31
2022-12-25T21:32:49.784Z,5.00
2022-12-25T21:52:49.672Z,5.06
2022-12-25T22:12:49.757Z,5.50
2022-12-25T22:32:49.717Z,5.12
2022-12-25T22:52:49.766Z,5.12
2022-12-25T23:12:49.728Z,5.18
2022-12-25T23:32:49.649Z,5.25
2022-12-25T23:52:49.659Z,5.25
